This is the latest recevied weather packets stored in our database for station/object W5HKR. If no packets are shown the sender has not sent any weather packets the latest 10 day(s).
| Time | Temp. | Humidity | Pressure | Rain* | Wind** | Luminosity | Snow |
|---|---|---|---|---|---|---|---|
| 1777236510 | 18.33° C | 91% | 990.6 hPa | 0 mm | - | - | - |
| 1777236211 | 18.33° C | 91% | 990.6 hPa | 0 mm | - | - | - |
| 1777236041 | 30.56° C | 62% | 979.9 hPa | 0 mm | - | - | - |
| 1777235910 | 18.33° C | 91% | 990.6 hPa | 0 mm | - | - | - |
| 1777235610 | 30° C | 64% | 980 hPa | 0 mm | - | - | - |
| 1777235310 | 18.33° C | 91% | 990.6 hPa | 0 mm | - | - | - |
| 1777235013 | 30.56° C | 62% | 980 hPa | 0 mm | - | - | - |
| 1777234962 | 30.56° C | 63% | 980.1 hPa | 0 mm | - | - | - |
| 1777234709 | 18.33° C | 91% | 990.6 hPa | 0 mm | - | - | - |
| 1777234411 | 30.56° C | 64% | 979.8 hPa | 0 mm | - | - | - |
| 1777234110 | 30.56° C | 63% | 979.7 hPa | 0 mm | - | - | - |
| 1777233883 | 30.56° C | 64% | 979.3 hPa | 0 mm | - | - | - |
| 1777233810 | 30.56° C | 63% | 979.9 hPa | 0 mm | - | - | - |
| 1777233509 | 30.56° C | 64% | 979.8 hPa | 0 mm | - | - | - |
| 1777233211 | 30.56° C | 64% | 979.5 hPa | 0 mm | - | - | - |
| 1777232911 | 31.11° C | 66% | 979.7 hPa | 0 mm | - | - | - |
| 1777232802 | 18.33° C | 91% | 990.6 hPa | 0 mm | - | - | - |
| 1777232610 | 18.33° C | 91% | 990.6 hPa | 0 mm | - | - | - |
| 1777232310 | 18.33° C | 91% | 990.6 hPa | 0 mm | - | - | - |
| 1777232011 | 18.33° C | 91% | 990.6 hPa | 0 mm | - | - | - |
| 1777231711 | 29.44° C | 70% | 980.4 hPa | 0 mm | - | - | - |
| 1777231411 | 29.44° C | 68% | 980.2 hPa | 0 mm | - | - | - |
| 1777231110 | 29.44° C | 68% | 980.3 hPa | 0 mm | - | - | - |
| 1777230813 | 18.33° C | 91% | 990.6 hPa | 0 mm | - | - | - |
| 1777230643 | 18.33° C | 91% | 990.6 hPa | 0 mm | - | - | - |
* Rain latest hour (hover to see other rain measurements)
** Current wind speed in m/s (hover to see current wind gust speed)